Time;durP1;ratioP1;P1;durP2;ratioP2;P2;SDS_P1;SDS_P2;PMS_P1;PMS_P2;Temp;Humidity;BMP_temperature;BMP_pressure;BME280_temperature;BME280_humidity;BME280_pressure;Samples;Min_cycle;Max_cycle;Signal;HPM_P1;HPM_P2
2023/12/05 00:02:38;;;;;;;0.50;0.50;;;-2.80;99.90;-0.70;96271.00;;;;5083478;28;20453;-70
2023/12/05 00:05:27;;;;;;;0.70;0.70;;;-2.90;99.90;-0.60;96274.00;;;;5082229;28;20525;-70
2023/12/05 00:08:17;;;;;;;0.50;0.50;;;-2.80;99.90;-0.60;96262.00;;;;5088508;28;20761;-69
2023/12/05 00:11:08;;;;;;;0.50;0.50;;;-2.80;99.90;-0.80;96266.00;;;;5089242;28;20423;-69
2023/12/05 00:13:57;;;;;;;0.50;0.50;;;-2.80;99.90;-0.90;96266.00;;;;5086142;28;20436;-70
2023/12/05 00:16:45;;;;;;;0.50;0.50;;;-2.90;99.90;-0.90;96256.00;;;;5089019;28;20442;-69
2023/12/05 00:19:36;;;;;;;0.50;0.50;;;-2.90;99.90;-1.00;96258.00;;;;5085662;28;20437;-69
2023/12/05 00:22:27;;;;;;;0.40;0.40;;;-2.90;99.90;-0.60;96255.00;;;;5088284;28;21074;-70
2023/12/05 00:25:17;;;;;;;0.50;0.50;;;-2.90;99.90;-0.40;96265.00;;;;5088515;28;20502;-70
2023/12/05 00:28:06;;;;;;;0.50;0.50;;;-2.90;99.90;-0.50;96247.00;;;;5089238;28;20437;-69
2023/12/05 00:30:54;;;;;;;0.43;0.43;;;-2.80;99.90;-0.60;96245.00;;;;5085644;28;20473;-70
2023/12/05 00:33:43;;;;;;;0.50;0.50;;;-2.80;99.90;-0.70;96245.00;;;;5083652;28;20433;-69
2023/12/05 00:36:33;;;;;;;0.43;0.43;;;-2.80;99.90;-0.70;96241.00;;;;5081562;28;20459;-68
2023/12/05 00:39:22;;;;;;;0.50;0.50;;;-2.80;99.90;-1.00;96248.00;;;;5088733;28;20425;-69
2023/12/05 00:42:11;;;;;;;0.60;0.60;;;-2.90;99.90;-1.00;96243.00;;;;5088450;28;20998;-69
2023/12/05 00:45:00;;;;;;;0.60;0.60;;;-2.90;99.90;-0.90;96256.00;;;;5088417;28;20460;-69
2023/12/05 00:47:49;;;;;;;0.57;0.57;;;-2.90;99.90;-1.00;96244.00;;;;5084965;28;20430;-69
2023/12/05 00:50:38;;;;;;;0.50;0.50;;;-3.00;99.90;-1.00;96239.00;;;;5086523;28;20429;-69
2023/12/05 00:53:29;;;;;;;0.50;0.50;;;-3.00;99.90;-0.90;96245.00;;;;5088062;28;20433;-69
2023/12/05 00:56:20;;;;;;;0.60;0.60;;;-3.00;99.90;-1.00;96239.00;;;;5087923;28;20472;-69
2023/12/05 00:59:09;;;;;;;0.60;0.60;;;-3.00;99.90;-1.10;96243.00;;;;5087220;28;20418;-69
2023/12/05 01:01:58;;;;;;;0.50;0.50;;;-3.10;99.90;-1.20;96234.00;;;;5085811;28;20457;-69
2023/12/05 01:04:47;;;;;;;0.50;0.50;;;-3.10;99.90;-0.70;96242.00;;;;5083017;28;20786;-69
2023/12/05 01:07:36;;;;;;;0.50;0.50;;;-3.10;99.90;-0.90;96251.00;;;;5081091;28;20444;-70
2023/12/05 01:10:26;;;;;;;0.60;0.60;;;-3.00;99.90;-1.20;96235.00;;;;5087834;28;20424;-68
2023/12/05 01:13:15;;;;;;;0.50;0.50;;;-3.10;99.90;-1.40;96239.00;;;;5087880;28;20460;-68
2023/12/05 01:16:05;;;;;;;0.40;0.40;;;-3.20;99.90;-1.30;96240.00;;;;5087417;28;20454;-68
2023/12/05 01:18:53;;;;;;;0.60;0.60;;;-3.20;99.90;-1.20;96236.00;;;;5083926;28;20796;-69
2023/12/05 01:21:42;;;;;;;0.50;0.50;;;-3.20;99.90;-1.20;96234.00;;;;5076072;28;20503;-69
2023/12/05 01:24:31;;;;;;;0.57;0.57;;;-3.20;99.90;-0.90;96244.00;;;;5086138;28;20239;-69
2023/12/05 01:27:22;;;;;;;0.50;0.50;;;-3.20;99.90;-1.10;96232.00;;;;5087396;28;20442;-69
2023/12/05 01:30:11;;;;;;;0.53;0.53;;;-3.20;99.90;-1.30;96229.00;;;;5087612;28;20433;-68
2023/12/05 01:33:01;;;;;;;0.60;0.60;;;-3.20;99.90;-1.20;96219.00;;;;5088085;28;20434;-68
2023/12/05 01:35:49;;;;;;;0.70;0.70;;;-3.20;99.90;-1.60;96204.00;;;;5085027;28;20452;-69
2023/12/05 01:38:39;;;;;;;0.60;0.60;;;-3.30;99.90;-1.60;96213.00;;;;5082110;28;20444;-69
2023/12/05 01:41:28;;;;;;;0.60;0.60;;;-3.30;99.90;-1.10;96211.00;;;;5088289;28;20422;-69
2023/12/05 01:44:18;;;;;;;0.60;0.60;;;-3.20;99.90;-0.70;96199.00;;;;5087590;28;20429;-69
2023/12/05 01:47:07;;;;;;;0.60;0.60;;;-3.20;99.90;-0.60;96193.00;;;;5088065;28;20422;-69
2023/12/05 01:49:56;;;;;;;0.70;0.70;;;-3.10;99.90;-0.80;96194.00;;;;5083052;28;20426;-69
2023/12/05 01:52:51;;;;;;;0.63;0.63;;;-3.10;99.90;-1.20;96179.00;;;;5083050;28;20468;-68
2023/12/05 01:55:40;;;;;;;0.50;0.50;;;-3.10;99.90;-0.80;96184.00;;;;5087597;28;20437;-69
2023/12/05 01:58:29;;;;;;;0.50;0.50;;;-3.10;99.90;-0.80;96186.00;;;;5087909;28;20426;-69
2023/12/05 02:01:20;;;;;;;0.80;0.80;;;-3.10;99.90;-0.60;96190.00;;;;5087609;28;20421;-69
2023/12/05 02:04:09;;;;;;;0.70;0.70;;;-3.00;99.90;-0.50;96182.00;;;;5085093;28;20790;-69
2023/12/05 02:06:58;;;;;;;0.60;0.60;;;-3.00;99.90;-0.40;96180.00;;;;5086486;28;20445;-69
2023/12/05 02:09:47;;;;;;;0.50;0.50;;;-2.90;99.90;-0.40;96181.00;;;;5084823;28;20437;-69
2023/12/05 02:12:38;;;;;;;0.60;0.60;;;-2.90;99.90;-0.50;96184.00;;;;5084549;28;20414;-69
2023/12/05 02:15:27;;;;;;;0.47;0.47;;;-2.80;99.90;-1.00;96181.00;;;;5090822;28;20828;-69
2023/12/05 02:18:23;;;;;;;0.60;0.60;;;-2.90;99.90;-1.00;96181.00;;;;5091264;28;20436;-69
2023/12/05 02:21:21;;;;;;;0.60;0.60;;;-3.00;99.90;-1.10;96169.00;;;;5090900;28;20433;-70
2023/12/05 02:24:34;;;;;;;0.50;0.50;;;-2.90;99.90;-1.10;96168.00;;;;5091173;28;20937;-69
2023/12/05 02:27:36;;;;;;;0.40;0.40;;;-3.00;99.90;-1.10;96185.00;;;;5090798;28;20418;-69
2023/12/05 02:30:26;;;;;;;0.50;0.50;;;-3.10;99.90;-1.20;96180.00;;;;5091094;28;20417;-69
2023/12/05 02:33:15;;;;;;;0.60;0.60;;;-3.10;99.90;-0.80;96179.00;;;;5090997;28;20438;-69
2023/12/05 02:36:17;;;;;;;0.60;0.60;;;-3.00;99.90;-0.90;96183.00;;;;5090886;28;20445;-68
2023/12/05 02:39:19;;;;;;;0.70;0.70;;;-3.00;99.90;-1.00;96189.00;;;;5087986;28;20425;-69
2023/12/05 02:42:13;;;;;;;0.50;0.50;;;-3.00;99.90;-1.00;96175.00;;;;5088542;28;20432;-68
2023/12/05 02:45:07;;;;;;;0.60;0.60;;;-3.00;99.90;-0.70;96185.00;;;;5088263;28;20445;-69
2023/12/05 02:47:57;;;;;;;0.60;0.60;;;-3.00;99.90;-0.70;96178.00;;;;5087579;28;20466;-68
2023/12/05 02:50:47;;;;;;;0.50;0.50;;;-3.00;99.90;-0.90;96181.00;;;;5090641;28;20440;-68
2023/12/05 02:53:36;;;;;;;0.40;0.40;;;-3.00;99.90;-0.70;96175.00;;;;5087006;28;20433;-69
2023/12/05 02:56:25;;;;;;;0.67;0.67;;;-3.00;99.90;-0.60;96173.00;;;;5090154;28;20996;-68
2023/12/05 02:59:14;;;;;;;0.63;0.63;;;-2.90;99.90;-0.80;96160.00;;;;5089472;28;20421;-69
2023/12/05 03:02:05;;;;;;;0.60;0.60;;;-2.90;99.90;-0.70;96162.00;;;;5090073;28;20436;-68
2023/12/05 03:04:53;;;;;;;0.50;0.50;;;-2.90;99.90;-0.40;96160.00;;;;5086225;28;20503;-69
2023/12/05 03:07:42;;;;;;;0.50;0.50;;;-2.90;99.90;-0.30;96155.00;;;;5084870;28;20430;-69
2023/12/05 03:10:31;;;;;;;0.53;0.53;;;-2.80;99.90;-0.40;96150.00;;;;5082724;28;20436;-69
2023/12/05 03:13:20;;;;;;;0.57;0.57;;;-2.80;99.90;-1.00;96149.00;;;;5090050;28;20804;-69
2023/12/05 03:16:10;;;;;;;0.53;0.53;;;-2.80;99.90;-1.30;96146.00;;;;5090043;28;20450;-69
2023/12/05 03:19:00;;;;;;;0.47;0.47;;;-2.90;99.90;-1.20;96152.00;;;;5086528;28;20421;-69
2023/12/05 03:21:49;;;;;;;0.50;0.50;;;-2.90;99.90;-0.70;96158.00;;;;5084386;28;20811;-69
2023/12/05 03:24:38;;;;;;;0.50;0.50;;;-2.90;99.90;-0.30;96159.00;;;;5088245;28;20474;-70
2023/12/05 03:27:27;;;;;;;0.53;0.53;;;-2.80;99.90;-0.10;96158.00;;;;5089632;28;21135;-69
2023/12/05 03:30:16;;;;;;;0.50;0.50;;;-2.80;99.90;-0.20;96144.00;;;;5090589;28;20432;-69
2023/12/05 03:33:04;;;;;;;0.50;0.50;;;-2.60;99.90;-0.70;96129.00;;;;5089845;28;20414;-69
2023/12/05 03:35:55;;;;;;;0.70;0.70;;;-2.80;99.90;-0.50;96132.00;;;;5086837;28;20457;-69
2023/12/05 03:38:43;;;;;;;0.40;0.40;;;-2.70;99.90;-0.80;96138.00;;;;5084989;28;20437;-69
2023/12/05 03:41:32;;;;;;;0.70;0.70;;;-2.70;99.90;-0.70;96150.00;;;;5089644;28;20436;-69
2023/12/05 03:44:21;;;;;;;0.40;0.40;;;-2.70;99.90;-1.40;96148.00;;;;5089382;28;20476;-68
2023/12/05 03:47:10;;;;;;;0.50;0.50;;;-2.80;99.90;-1.20;96146.00;;;;5089501;28;20445;-69
2023/12/05 03:49:59;;;;;;;0.57;0.57;;;-2.90;99.90;-1.60;96145.00;;;;5090063;28;20425;-69
2023/12/05 03:52:49;;;;;;;0.50;0.50;;;-3.00;99.90;-1.40;96150.00;;;;5083082;28;20444;-68
2023/12/05 03:55:38;;;;;;;0.53;0.53;;;-3.10;99.90;-0.60;96150.00;;;;5088940;28;20446;-69
2023/12/05 03:58:27;;;;;;;0.60;0.60;;;-2.90;99.90;-0.60;96139.00;;;;5088913;28;20433;-68
2023/12/05 04:01:17;;;;;;;0.80;0.80;;;-2.90;99.90;-1.10;96137.00;;;;5089137;28;20825;-69
2023/12/05 04:04:06;;;;;;;0.60;0.60;;;-3.00;99.90;-1.60;96129.00;;;;5088744;28;20469;-68
2023/12/05 04:06:55;;;;;;;0.60;0.60;;;-3.00;99.90;-0.70;96135.00;;;;5088478;28;20454;-70
2023/12/05 04:09:46;;;;;;;0.43;0.43;;;-3.00;99.90;-0.30;96131.00;;;;5086145;28;20445;-69
2023/12/05 04:12:35;;;;;;;0.40;0.40;;;-2.90;99.90;-0.80;96139.00;;;;5082129;28;20491;-69
2023/12/05 04:15:24;;;;;;;0.40;0.40;;;-2.80;99.90;-1.00;96130.00;;;;5088573;28;20446;-68
2023/12/05 04:18:13;;;;;;;0.53;0.53;;;-2.80;99.90;-0.80;96126.00;;;;5089269;28;20815;-69
2023/12/05 04:21:02;;;;;;;0.53;0.53;;;-2.90;99.90;-0.20;96133.00;;;;5088697;28;21027;-69
2023/12/05 04:23:51;;;;;;;0.50;0.50;;;-2.80;99.90;-0.60;96133.00;;;;5088598;28;20986;-69
2023/12/05 04:26:42;;;;;;;0.70;0.70;;;-2.70;99.90;-1.00;96123.00;;;;5088783;28;20456;-69
2023/12/05 04:29:30;;;;;;;0.53;0.53;;;-2.80;99.90;-0.90;96128.00;;;;5088707;28;20422;-70
2023/12/05 04:32:19;;;;;;;0.40;0.40;;;-2.80;99.90;-0.50;96124.00;;;;5087721;28;20948;-69
2023/12/05 04:35:08;;;;;;;0.60;0.60;;;-2.80;99.90;-0.50;96121.00;;;;5088941;28;20913;-69
2023/12/05 04:37:57;;;;;;;0.50;0.50;;;-2.70;99.90;-0.70;96127.00;;;;5089836;28;20426;-69
2023/12/05 04:40:46;;;;;;;0.60;0.60;;;-2.70;99.90;-0.80;96123.00;;;;5084465;28;20417;-68
2023/12/05 04:43:37;;;;;;;0.50;0.50;;;-2.80;99.90;-0.60;96115.00;;;;5087493;28;20453;-70
2023/12/05 04:46:26;;;;;;;0.40;0.40;;;-2.70;99.90;-0.60;96109.00;;;;5089744;28;20445;-69
2023/12/05 04:49:15;;;;;;;0.50;0.50;;;-2.70;99.90;-0.50;96120.00;;;;5088231;28;20426;-69
2023/12/05 04:52:04;;;;;;;0.57;0.57;;;-2.60;99.90;-0.60;96120.00;;;;5088307;28;20433;-69
2023/12/05 04:54:53;;;;;;;0.60;0.60;;;-2.60;99.90;-0.40;96126.00;;;;5084546;28;20944;-68
2023/12/05 04:57:42;;;;;;;0.50;0.50;;;-2.60;99.90;-0.90;96131.00;;;;5081688;28;20418;-69
2023/12/05 05:00:32;;;;;;;0.57;0.57;;;-2.60;99.90;-0.90;96132.00;;;;5088365;28;20421;-69
2023/12/05 05:03:21;;;;;;;0.40;0.40;;;-2.70;99.90;-0.50;96138.00;;;;5087573;28;20443;-69
2023/12/05 05:06:12;;;;;;;0.53;0.53;;;-2.60;99.90;-0.40;96133.00;;;;5088159;28;20491;-69
2023/12/05 05:09:00;;;;;;;0.67;0.67;;;-2.60;99.90;-0.10;96143.00;;;;5088291;28;20482;-68
2023/12/05 05:11:49;;;;;;;0.60;0.60;;;-2.50;99.90;0.20;96145.00;;;;5087694;28;20425;-69
2023/12/05 05:14:38;;;;;;;0.77;0.77;;;-2.50;99.90;-0.20;96142.00;;;;5083862;28;20919;-69
2023/12/05 05:17:28;;;;;;;0.50;0.50;;;-2.40;99.90;-0.30;96144.00;;;;5084960;28;20434;-68
2023/12/05 05:20:17;;;;;;;0.60;0.60;;;-2.40;99.90;-0.20;96147.00;;;;5086299;28;21083;-69
2023/12/05 05:23:06;;;;;;;0.60;0.60;;;-2.40;99.90;-0.10;96159.00;;;;5086327;28;20440;-69
2023/12/05 05:25:55;;;;;;;0.60;0.60;;;-2.50;99.90;-0.20;96142.00;;;;5086584;28;20465;-69
2023/12/05 05:28:44;;;;;;;0.50;0.50;;;-2.40;99.90;-0.30;96141.00;;;;5075782;28;20440;-69
2023/12/05 05:31:33;;;;;;;0.60;0.60;;;-2.40;99.90;-0.70;96132.00;;;;5081675;28;20440;-69
2023/12/05 05:34:23;;;;;;;0.50;0.50;;;-2.50;99.90;-0.70;96135.00;;;;5086746;28;20418;-69
2023/12/05 05:37:12;;;;;;;0.60;0.60;;;-2.50;99.90;-0.30;96142.00;;;;5087114;28;20437;-68
2023/12/05 05:40:01;;;;;;;0.50;0.50;;;-2.50;99.90;0.00;96156.00;;;;5088244;28;20969;-68
2023/12/05 05:42:50;;;;;;;0.70;0.70;;;-2.30;99.90;-0.30;96157.00;;;;5087016;28;20432;-68
2023/12/05 05:45:39;;;;;;;0.60;0.60;;;-2.30;99.90;-0.80;96158.00;;;;5083566;28;20483;-70
2023/12/05 05:48:27;;;;;;;0.43;0.43;;;-2.40;99.90;-1.10;96162.00;;;;5087518;28;20432;-69
2023/12/05 05:51:18;;;;;;;0.60;0.60;;;-2.50;99.90;-0.60;96169.00;;;;5087193;28;20607;-69
2023/12/05 05:54:07;;;;;;;0.60;0.60;;;-2.60;99.90;-0.50;96163.00;;;;5085572;28;20433;-69
2023/12/05 05:56:57;;;;;;;0.50;0.50;;;-2.50;99.90;-0.30;96179.00;;;;5081065;28;20481;-69
2023/12/05 05:59:46;;;;;;;0.60;0.60;;;-2.50;99.90;-0.20;96176.00;;;;5086222;28;20428;-69
2023/12/05 06:02:35;;;;;;;0.50;0.50;;;-2.50;99.90;-0.10;96185.00;;;;5087481;28;20422;-69
2023/12/05 06:05:24;;;;;;;0.50;0.50;;;-2.50;99.90;0.10;96183.00;;;;5087233;28;20521;-68
2023/12/05 06:08:15;;;;;;;0.30;0.30;;;-2.40;99.90;0.10;96185.00;;;;5086571;28;20425;-69
2023/12/05 06:11:05;;;;;;;0.40;0.40;;;-2.40;99.90;0.00;96193.00;;;;5086802;28;20429;-67
2023/12/05 06:13:54;;;;;;;0.53;0.53;;;-2.40;99.90;-0.10;96191.00;;;;5085555;28;20957;-68
2023/12/05 06:16:43;;;;;;;0.50;0.50;;;-2.30;99.90;-0.10;96191.00;;;;5087829;28;20980;-69
2023/12/05 06:19:32;;;;;;;0.50;0.50;;;-2.30;99.90;0.10;96192.00;;;;5085538;28;20450;-69
2023/12/05 06:22:21;;;;;;;0.60;0.60;;;-2.30;99.90;0.20;96193.00;;;;5079264;28;20437;-70
2023/12/05 06:25:11;;;;;;;0.60;0.60;;;-2.30;99.90;-0.40;96177.00;;;;5075171;28;20474;-69
2023/12/05 06:28:00;;;;;;;0.50;0.50;;;-2.40;99.90;-0.50;96181.00;;;;5084392;28;20812;-68
2023/12/05 06:30:49;;;;;;;0.50;0.50;;;-2.40;99.90;-0.40;96169.00;;;;5072486;28;20443;-69
2023/12/05 06:33:38;;;;;;;0.70;0.70;;;-2.40;99.90;-0.70;96152.00;;;;5078681;28;20453;-69
2023/12/05 06:36:27;;;;;;;0.53;0.53;;;-2.50;99.90;-1.00;96169.00;;;;5082204;28;20476;-68
2023/12/05 06:39:15;;;;;;;0.60;0.60;;;-2.50;99.90;-1.10;96160.00;;;;5082359;28;20853;-69
2023/12/05 06:42:06;;;;;;;0.47;0.47;;;-2.60;99.90;-1.00;96168.00;;;;5075140;28;20457;-69
2023/12/05 06:44:55;;;;;;;0.60;0.60;;;-2.60;99.90;-0.70;96166.00;;;;5079261;28;20457;-69
2023/12/05 06:47:44;;;;;;;0.50;0.50;;;-2.60;99.90;-0.50;96175.00;;;;5079294;28;20433;-70
2023/12/05 06:50:33;;;;;;;0.50;0.50;;;-2.60;99.90;-0.30;96170.00;;;;5078415;28;20469;-69
2023/12/05 06:53:22;;;;;;;0.50;0.50;;;-2.50;99.90;0.10;96181.00;;;;5083023;28;20463;-69
2023/12/05 06:56:15;;;;;;;0.60;0.60;;;-2.40;99.90;0.30;96175.00;;;;5081905;28;20957;-69
2023/12/05 06:59:05;;;;;;;0.60;0.60;;;-2.30;99.90;-0.20;96185.00;;;;5082088;28;20456;-69
2023/12/05 07:01:54;;;;;;;0.60;0.60;;;-2.30;99.90;-0.40;96196.00;;;;5074179;28;20441;-68
2023/12/05 07:04:43;;;;;;;0.50;0.50;;;-2.30;99.90;-1.00;96191.00;;;;5080173;28;20877;-70
2023/12/05 07:07:31;;;;;;;0.50;0.50;;;-2.40;99.90;-0.80;96209.00;;;;5072763;28;21044;-70
2023/12/05 07:10:20;;;;;;;0.60;0.60;;;-2.50;99.90;-0.90;96209.00;;;;5077236;28;20441;-69
2023/12/05 07:13:09;;;;;;;0.63;0.63;;;-2.50;99.90;-0.90;96197.00;;;;5074458;28;20441;-68
2023/12/05 07:15:59;;;;;;;0.60;0.60;;;-2.50;99.90;-1.00;96195.00;;;;5074259;28;20445;-69
2023/12/05 07:18:49;;;;;;;0.80;0.80;;;-2.60;99.90;-0.90;96199.00;;;;5075032;28;20437;-70
2023/12/05 07:21:38;;;;;;;0.40;0.40;;;-2.50;99.90;-1.10;96199.00;;;;5073949;28;20519;-68
2023/12/05 07:24:27;;;;;;;0.60;0.60;;;-2.60;99.90;-1.30;96200.00;;;;5072279;28;20569;-68
2023/12/05 07:27:16;;;;;;;0.50;0.50;;;-2.60;99.90;-0.50;96204.00;;;;5071748;28;20973;-69
2023/12/05 07:30:07;;;;;;;0.60;0.60;;;-2.60;99.90;-0.40;96189.00;;;;5069466;28;20490;-68
2023/12/05 07:32:58;;;;;;;0.60;0.60;;;-2.50;99.90;-0.40;96176.00;;;;5071165;28;20442;-68
2023/12/05 07:35:47;;;;;;;0.50;0.50;;;-2.50;99.90;-0.20;96182.00;;;;5072170;28;20507;-69
2023/12/05 07:38:36;;;;;;;0.67;0.67;;;-2.40;99.90;-0.90;96169.00;;;;5072676;28;20437;-69
2023/12/05 07:41:25;;;;;;;0.63;0.63;;;-2.40;99.90;-0.50;96171.00;;;;5070334;28;20449;-68
2023/12/05 07:44:14;;;;;;;0.50;0.50;;;-2.40;99.90;-0.70;96166.00;;;;5070987;28;20445;-68
2023/12/05 07:47:07;;;;;;;0.40;0.40;;;-2.30;99.90;-1.00;96180.00;;;;5077189;28;20457;-67
2023/12/05 07:49:57;;;;;;;0.60;0.60;;;-2.40;99.90;-0.80;96173.00;;;;5088691;28;20441;-68
2023/12/05 07:52:50;;;;;;;0.43;0.43;;;-2.40;99.90;0.10;96189.00;;;;5088096;28;20821;-68
2023/12/05 07:55:39;;;;;;;0.60;0.60;;;-2.30;99.90;0.00;96184.00;;;;5087572;28;20450;-68
2023/12/05 07:58:28;;;;;;;0.70;0.70;;;-2.20;99.90;-0.20;96183.00;;;;5088109;28;20425;-68
2023/12/05 08:01:17;;;;;;;0.50;0.50;;;-2.30;99.90;-0.50;96186.00;;;;5086986;28;20861;-69
2023/12/05 08:04:06;;;;;;;0.50;0.50;;;-2.30;99.90;-0.40;96174.00;;;;5086274;28;20441;-69
2023/12/05 08:06:56;;;;;;;0.60;0.60;;;-2.30;99.90;-0.60;96173.00;;;;5078481;28;20481;-69
2023/12/05 08:09:45;;;;;;;0.43;0.43;;;-2.30;99.90;-0.10;96180.00;;;;5081948;28;20977;-68
2023/12/05 08:12:34;;;;;;;0.40;0.40;;;-2.30;99.90;-0.50;96179.00;;;;5087524;28;20418;-69
2023/12/05 08:15:23;;;;;;;0.60;0.60;;;-2.30;99.90;-1.00;96171.00;;;;5087651;28;20455;-70
2023/12/05 08:18:12;;;;;;;0.60;0.60;;;-2.40;99.90;-0.90;96170.00;;;;5087378;28;20930;-69
2023/12/05 08:21:01;;;;;;;0.50;0.50;;;-2.40;99.90;-0.10;96177.00;;;;5085713;28;20452;-68
2023/12/05 08:23:51;;;;;;;0.70;0.70;;;-2.30;99.90;-0.40;96172.00;;;;5079973;28;20437;-68
2023/12/05 08:26:40;;;;;;;0.60;0.60;;;-2.20;99.90;-1.00;96162.00;;;;5081437;28;20496;-69
2023/12/05 08:29:28;;;;;;;0.50;0.50;;;-2.20;99.90;-0.40;96177.00;;;;5086593;28;20440;-68
2023/12/05 08:32:17;;;;;;;0.60;0.60;;;-2.20;99.90;-0.40;96179.00;;;;5084324;28;20439;-70
2023/12/05 08:35:07;;;;;;;0.50;0.50;;;-2.10;99.90;-0.50;96183.00;;;;5088720;28;20453;-69
2023/12/05 08:37:56;;;;;;;0.50;0.50;;;-2.00;99.90;-0.10;96196.00;;;;5079431;28;21054;-70
2023/12/05 08:40:47;;;;;;;0.60;0.60;;;-1.90;99.90;-0.10;96194.00;;;;5085744;28;20436;-70
2023/12/05 08:43:36;;;;;;;0.40;0.40;;;-1.90;99.90;0.20;96196.00;;;;5083512;28;20422;-70
2023/12/05 08:46:24;;;;;;;0.60;0.60;;;-1.80;99.90;0.50;96201.00;;;;5085884;28;20469;-69
2023/12/05 08:49:13;;;;;;;0.50;0.50;;;-1.70;99.90;0.60;96208.00;;;;5086143;28;20812;-69
2023/12/05 08:52:02;;;;;;;0.50;0.50;;;-1.60;99.90;0.60;96229.00;;;;5086271;28;20508;-67
2023/12/05 08:54:51;;;;;;;0.53;0.53;;;-1.50;99.90;0.50;96236.00;;;;5085461;28;20442;-69
2023/12/05 08:57:41;;;;;;;0.50;0.50;;;-1.40;99.90;1.40;96243.00;;;;5082112;28;20446;-70
2023/12/05 09:00:30;;;;;;;0.50;0.50;;;-1.20;99.90;2.30;96245.00;;;;5087528;28;20456;-70
2023/12/05 09:03:19;;;;;;;0.47;0.47;;;-0.90;99.90;2.80;96243.00;;;;5084573;28;20437;-69
2023/12/05 09:06:10;;;;;;;0.50;0.50;;;-0.60;99.90;3.00;96239.00;;;;5086607;28;20492;-70
2023/12/05 09:08:59;;;;;;;0.57;0.57;;;-0.40;99.90;3.00;96231.00;;;;5083331;28;20008;-69
2023/12/05 09:11:48;;;;;;;0.50;0.50;;;0.60;99.90;2.50;96199.00;;;;5086923;28;21285;-68
2023/12/05 09:14:38;;;;;;;0.50;0.50;;;0.00;99.90;2.00;96193.00;;;;5087829;28;20463;-68
2023/12/05 09:17:28;;;;;;;0.40;0.40;;;0.00;99.90;1.40;96184.00;;;;5086883;28;20423;-67
2023/12/05 09:20:18;;;;;;;0.50;0.50;;;-0.10;99.90;1.90;96183.00;;;;5085578;28;20960;-68
2023/12/05 09:23:07;;;;;;;0.50;0.50;;;-0.10;99.90;2.20;96189.00;;;;5074024;28;20419;-68
2023/12/05 09:25:56;;;;;;;0.40;0.40;;;-0.10;99.90;1.30;96188.00;;;;5083427;28;20453;-70
2023/12/05 09:28:45;;;;;;;0.40;0.40;;;-0.20;99.90;1.50;96188.00;;;;5088121;28;20433;-68
2023/12/05 09:31:36;;;;;;;0.40;0.40;;;-0.20;99.90;2.40;96202.00;;;;5086729;28;20456;-68
2023/12/05 09:34:24;;;;;;;0.50;0.50;;;-0.10;99.90;2.60;96201.00;;;;5085885;28;20424;-68
2023/12/05 09:37:13;;;;;;;0.57;0.57;;;0.10;99.90;2.70;96214.00;;;;5085666;28;20429;-68
2023/12/05 09:40:02;;;;;;;0.50;0.50;;;0.20;99.90;2.50;96193.00;;;;5086828;28;20581;-68
2023/12/05 09:42:54;;;;;;;0.30;0.30;;;0.20;99.90;1.80;96191.00;;;;5082437;28;20441;-69
2023/12/05 09:45:46;;;;;;;0.40;0.40;;;0.10;99.90;1.60;96194.00;;;;5085802;28;21081;-68
2023/12/05 09:48:46;;;;;;;0.60;0.60;;;0.00;99.90;1.70;96183.00;;;;5086977;28;20426;-69
2023/12/05 09:51:37;;;;;;;0.40;0.40;;;0.00;99.90;1.90;96195.00;;;;5086460;28;20418;-69
2023/12/05 09:54:26;;;;;;;0.50;0.50;;;0.00;99.90;2.30;96186.00;;;;5086101;28;20938;-69
2023/12/05 09:57:16;;;;;;;0.60;0.60;;;0.00;99.90;2.90;96206.00;;;;5083456;28;20429;-68
2023/12/05 10:00:06;;;;;;;0.30;0.30;;;0.20;99.90;2.80;96195.00;;;;5087014;28;20429;-68
2023/12/05 10:02:57;;;;;;;0.40;0.40;;;0.30;99.90;2.80;96183.00;;;;5075769;28;20539;-68
2023/12/05 10:05:49;;;;;;;0.40;0.40;;;0.30;99.90;2.50;96169.00;;;;5075956;28;20464;-68
2023/12/05 10:08:38;;;;;;;0.40;0.40;;;0.30;99.90;2.90;96175.00;;;;5072786;28;20420;-68
2023/12/05 10:11:28;;;;;;;0.30;0.30;;;0.40;99.90;2.50;96163.00;;;;5080270;28;20434;-69
2023/12/05 10:14:17;;;;;;;0.40;0.40;;;0.50;99.90;2.70;96156.00;;;;5079186;28;20421;-69
2023/12/05 10:17:07;;;;;;;0.40;0.40;;;0.50;99.90;3.30;96162.00;;;;5079933;28;20418;-68
2023/12/05 10:19:56;;;;;;;0.47;0.47;;;0.70;99.90;3.80;96166.00;;;;5086864;28;20428;-68
2023/12/05 10:22:46;;;;;;;0.50;0.50;;;0.80;99.90;3.00;96159.00;;;;5086384;28;20999;-68
2023/12/05 10:25:36;;;;;;;0.40;0.40;;;0.90;99.90;2.70;96150.00;;;;5085412;28;20468;-69
2023/12/05 10:28:25;;;;;;;0.60;0.60;;;0.90;99.90;3.30;96160.00;;;;5086257;28;20421;-69
2023/12/05 10:31:18;;;;;;;0.60;0.60;;;0.90;99.90;3.80;96162.00;;;;5072801;28;20441;-68
2023/12/05 10:34:07;;;;;;;0.40;0.40;;;1.10;99.90;4.10;96166.00;;;;5086682;28;20441;-68
2023/12/05 10:37:03;;;;;;;0.40;0.40;;;1.20;99.90;3.80;96163.00;;;;5079839;28;20442;-68
2023/12/05 10:39:55;;;;;;;0.40;0.40;;;1.40;99.90;4.00;96161.00;;;;5080394;28;20432;-68
2023/12/05 10:42:45;;;;;;;0.40;0.40;;;1.40;99.90;4.20;96159.00;;;;5083578;28;20430;-68
2023/12/05 10:45:34;;;;;;;0.40;0.40;;;1.50;99.90;4.70;96176.00;;;;5087736;28;20988;-68
2023/12/05 10:48:24;;;;;;;0.50;0.50;;;1.60;99.90;4.50;96175.00;;;;5084548;28;20433;-68
2023/12/05 10:51:13;;;;;;;0.47;0.47;;;1.80;99.90;4.50;96172.00;;;;5089797;28;20463;-67
2023/12/05 10:54:02;;;;;;;0.40;0.40;;;1.90;99.90;4.30;96178.00;;;;5084083;28;20448;-68
2023/12/05 10:56:58;;;;;;;0.30;0.30;;;1.90;99.90;4.40;96173.00;;;;5089996;28;20481;-67
2023/12/05 10:59:48;;;;;;;0.40;0.40;;;1.90;99.90;4.80;96180.00;;;;5083182;28;20688;-68
2023/12/05 11:02:39;;;;;;;0.40;0.40;;;2.00;99.90;4.70;96180.00;;;;5084402;28;20522;-68
2023/12/05 11:05:30;;;;;;;0.47;0.47;;;2.10;99.90;5.00;96174.00;;;;5082387;28;20476;-68
2023/12/05 11:08:19;;;;;;;0.50;0.50;;;2.10;99.90;5.20;96178.00;;;;5083363;28;20846;-68
2023/12/05 11:11:08;;;;;;;0.33;0.33;;;2.20;99.90;5.60;96178.00;;;;5089555;28;20199;-68
2023/12/05 11:14:00;;;;;;;0.50;0.50;;;2.30;99.90;5.60;96177.00;;;;5084839;28;20210;-68
2023/12/05 11:16:52;;;;;;;0.37;0.37;;;2.40;99.90;5.30;96180.00;;;;5079743;28;20212;-68
2023/12/05 11:19:57;;;;;;;0.37;0.37;;;2.40;99.90;5.10;96174.00;;;;5090357;28;20195;-68
2023/12/05 11:23:02;;;;;;;0.33;0.33;;;2.40;99.90;4.50;96167.00;;;;5087873;28;20191;-67
2023/12/05 11:26:01;;;;;;;0.40;0.40;;;2.40;99.90;5.00;96178.00;;;;5088607;28;20223;-68
2023/12/05 11:29:16;;;;;;;0.40;0.40;;;2.30;99.90;5.20;96178.00;;;;5084717;28;20191;-68
2023/12/05 11:32:24;;;;;;;0.43;0.43;;;2.40;99.90;4.80;96171.00;;;;5082520;28;20210;-67
2023/12/05 11:35:20;;;;;;;0.43;0.43;;;2.40;99.90;4.80;96184.00;;;;5086673;28;20238;-67
2023/12/05 11:38:13;;;;;;;0.47;0.47;;;2.30;99.90;5.40;96180.00;;;;5086542;28;20221;-67
2023/12/05 11:41:17;;;;;;;0.40;0.40;;;2.40;99.90;5.60;96177.00;;;;5083686;28;20191;-67
2023/12/05 11:44:21;;;;;;;0.40;0.40;;;2.50;99.90;5.40;96181.00;;;;5089800;28;20268;-68
2023/12/05 11:47:25;;;;;;;0.40;0.40;;;2.50;99.90;5.80;96183.00;;;;5088340;28;20231;-68
2023/12/05 11:50:16;;;;;;;0.57;0.57;;;2.60;99.90;5.80;96178.00;;;;5087401;28;20209;-67
2023/12/05 11:53:06;;;;;;;0.30;0.30;;;2.80;99.90;5.80;96178.00;;;;5088709;28;20222;-68
2023/12/05 11:55:55;;;;;;;0.30;0.30;;;2.80;99.90;6.20;96175.00;;;;5088298;28;20219;-67
2023/12/05 11:58:44;;;;;;;0.37;0.37;;;2.90;99.90;5.80;96181.00;;;;5084677;28;20207;-67
2023/12/05 12:01:34;;;;;;;0.40;0.40;;;3.00;99.90;5.90;96184.00;;;;5087661;28;20218;-68
2023/12/05 12:04:24;;;;;;;0.40;0.40;;;3.10;99.90;5.90;96182.00;;;;5088169;28;20210;-67
2023/12/05 12:07:13;;;;;;;0.53;0.53;;;3.20;99.90;5.30;96171.00;;;;5089663;28;20297;-68
2023/12/05 12:10:02;;;;;;;0.30;0.30;;;3.20;99.90;5.50;96178.00;;;;5085971;28;20203;-68
2023/12/05 12:12:52;;;;;;;0.40;0.40;;;3.10;99.90;5.50;96184.00;;;;5086707;28;20550;-68
2023/12/05 12:15:41;;;;;;;0.40;0.40;;;3.10;99.90;6.60;96187.00;;;;5089610;28;20218;-68
2023/12/05 12:18:32;;;;;;;0.30;0.30;;;3.30;99.90;6.40;96174.00;;;;5088894;28;20208;-67
2023/12/05 12:21:29;;;;;;;0.60;0.60;;;3.40;99.90;6.40;96168.00;;;;5085330;28;20190;-67
2023/12/05 12:24:20;;;;;;;0.60;0.60;;;3.50;99.90;6.80;96174.00;;;;5086741;28;20203;-68
2023/12/05 12:27:09;;;;;;;0.50;0.50;;;3.60;99.90;7.00;96181.00;;;;5085129;28;20218;-68
2023/12/05 12:29:58;;;;;;;0.40;0.40;;;3.70;99.90;6.30;96155.00;;;;5086774;28;20215;-68
2023/12/05 12:32:55;;;;;;;0.40;0.40;;;3.80;99.90;6.00;96165.00;;;;5085570;28;20199;-68
2023/12/05 12:35:48;;;;;;;0.40;0.40;;;3.70;99.90;5.80;96176.00;;;;5082362;28;20577;-68
2023/12/05 12:38:37;;;;;;;0.30;0.30;;;3.60;99.90;5.90;96166.00;;;;5082102;28;20192;-68
2023/12/05 12:41:27;;;;;;;0.40;0.40;;;3.50;99.90;5.50;96154.00;;;;5087522;28;20199;-68
2023/12/05 12:44:17;;;;;;;0.60;0.60;;;3.40;99.90;6.30;96156.00;;;;5085916;28;20195;-68